createdAt,value
2023-04-25T00:03:41.286Z,98857.56
2023-04-25T00:08:44.987Z,98844.63
2023-04-25T00:13:51.026Z,98848.34
2023-04-25T00:18:54.842Z,98849.41
2023-04-25T00:23:58.510Z,98851.41
2023-04-25T00:29:03.446Z,98845.81
2023-04-25T00:34:07.041Z,98857.50
2023-04-25T00:39:10.638Z,98855.94
2023-04-25T00:44:18.150Z,98857.97
2023-04-25T00:49:21.631Z,98871.47
2023-04-25T00:54:25.450Z,98876.97
2023-04-25T00:59:31.067Z,98881.50
2023-04-25T01:04:34.779Z,98892.06
2023-04-25T01:09:38.306Z,98881.78
2023-04-25T01:14:43.268Z,98879.19
2023-04-25T01:19:47.425Z,98882.81
2023-04-25T01:24:52.552Z,98888.06
2023-04-25T01:29:56.799Z,98888.13
2023-04-25T01:35:00.274Z,98875.19
2023-04-25T01:40:06.577Z,98880.31
2023-04-25T01:45:11.892Z,98881.00
2023-04-25T01:50:15.503Z,98885.34
2023-04-25T01:55:20.450Z,98891.34
2023-04-25T02:00:23.953Z,98892.19
2023-04-25T02:05:27.480Z,98887.81
2023-04-25T02:10:32.546Z,98881.59
2023-04-25T02:15:36.103Z,98872.84
2023-04-25T02:21:02.227Z,98880.47
2023-04-25T02:26:07.478Z,98869.09
2023-04-25T02:31:11.212Z,98868.16
2023-04-25T02:36:14.813Z,98872.38
2023-04-25T02:41:19.807Z,98867.81
2023-04-25T02:46:32.523Z,98873.69
2023-04-25T02:51:41.686Z,98865.59
2023-04-25T02:56:46.660Z,98867.06
2023-04-25T03:01:50.105Z,98866.13
2023-04-25T03:06:54.261Z,98866.38
2023-04-25T03:11:59.269Z,98870.59
2023-04-25T03:17:02.952Z,98879.28
2023-04-25T03:22:06.472Z,98871.41
2023-04-25T03:27:11.475Z,98876.47
2023-04-25T03:32:15.092Z,98889.97
2023-04-25T03:37:18.768Z,98879.53
2023-04-25T03:42:24.684Z,98886.16
2023-04-25T03:47:28.190Z,98899.59
2023-04-25T03:52:31.806Z,98883.22
2023-04-25T03:57:36.735Z,98880.59
2023-04-25T04:02:41.857Z,98876.94
2023-04-25T04:07:46.748Z,98865.16
2023-04-25T04:12:51.664Z,98851.22
2023-04-25T04:17:55.352Z,98844.31
2023-04-25T04:22:58.931Z,98838.59
2023-04-25T04:28:03.962Z,98842.50
2023-04-25T04:33:08.649Z,98848.47
2023-04-25T04:38:13.518Z,98853.06
2023-04-25T04:43:20.033Z,98848.06
2023-04-25T04:48:24.850Z,98839.16
2023-04-25T04:53:28.301Z,98834.75
2023-04-25T04:58:32.887Z,98832.91
2023-04-25T05:03:36.534Z,98836.06
2023-04-25T05:08:40.195Z,98833.94
2023-04-25T05:13:45.286Z,98824.63
2023-04-25T05:18:49.253Z,98825.91
2023-04-25T05:23:53.092Z,98823.00
2023-04-25T05:28:58.200Z,98821.84
2023-04-25T05:34:01.726Z,98817.38
2023-04-25T05:39:05.872Z,98829.78
2023-04-25T05:44:10.967Z,98825.53
2023-04-25T05:49:14.525Z,98823.63
2023-04-25T05:54:17.970Z,98821.50
2023-04-25T05:59:22.895Z,98828.06
2023-04-25T06:04:27.583Z,98824.84
2023-04-25T06:09:31.356Z,98825.13
2023-04-25T06:14:36.545Z,98825.16
2023-04-25T06:19:40.312Z,98816.13
2023-04-25T06:24:43.883Z,98815.94
2023-04-25T06:29:48.749Z,98804.81
2023-04-25T06:34:52.238Z,98817.59
2023-04-25T06:39:55.722Z,98807.25
2023-04-25T06:45:00.828Z,98806.59
2023-04-25T06:50:04.563Z,98804.88
2023-04-25T06:55:09.035Z,98803.50
2023-04-25T07:00:15.499Z,98807.44
2023-04-25T07:05:19.411Z,98800.44
2023-04-25T07:10:23.141Z,98789.41
2023-04-25T07:15:28.036Z,98798.59
2023-04-25T07:20:32.180Z,98799.00
2023-04-25T07:25:36.252Z,98802.19
2023-04-25T07:30:41.257Z,98794.53
2023-04-25T07:35:44.710Z,98790.91
2023-04-25T07:40:48.201Z,98786.97
2023-04-25T07:45:53.146Z,98787.03
2023-04-25T07:50:56.658Z,98783.78
2023-04-25T07:56:00.148Z,98775.41
2023-04-25T08:01:05.379Z,98775.09
2023-04-25T08:06:09.153Z,98763.13
2023-04-25T08:11:13.015Z,98764.75
2023-04-25T08:16:17.987Z,98758.94
2023-04-25T08:21:21.613Z,98762.16
2023-04-25T08:26:25.082Z,98757.44
2023-04-25T08:31:30.272Z,98743.78
2023-04-25T08:36:39.441Z,98745.88
2023-04-25T08:41:45.660Z,98736.47
2023-04-25T08:46:51.829Z,98750.22
2023-04-25T08:51:59.408Z,98746.78
2023-04-25T08:57:05.522Z,98738.59
2023-04-25T09:02:12.751Z,98735.06
2023-04-25T09:07:19.724Z,98739.00
2023-04-25T09:12:23.765Z,98734.63
2023-04-25T09:17:29.850Z,98737.84
2023-04-25T09:22:33.292Z,98730.03
2023-04-25T09:27:36.963Z,98734.25
2023-04-25T09:32:42.339Z,98729.00
2023-04-25T09:37:45.849Z,98710.47
2023-04-25T09:42:49.422Z,98718.94
2023-04-25T09:47:59.014Z,98720.13
2023-04-25T09:53:06.657Z,98706.53
2023-04-25T09:58:12.912Z,98692.63
2023-04-25T10:03:19.722Z,98701.16
2023-04-25T10:08:24.999Z,98702.25
2023-04-25T10:13:29.703Z,98702.59
2023-04-25T10:18:35.376Z,98703.16
2023-04-25T10:23:39.685Z,98706.66
2023-04-25T10:28:58.020Z,98695.94
2023-04-25T10:34:03.482Z,98695.38
2023-04-25T10:39:10.013Z,98690.75
2023-04-25T10:44:13.651Z,98680.81
2023-04-25T10:49:35.019Z,98667.47
2023-04-25T10:54:43.272Z,98674.06
2023-04-25T10:59:47.401Z,98666.88
2023-04-25T11:04:53.551Z,98652.00
2023-04-25T11:09:57.192Z,98641.28
2023-04-25T11:15:05.836Z,98635.38
2023-04-25T11:20:12.568Z,98625.94
2023-04-25T11:25:17.826Z,98615.81
2023-04-25T11:30:22.630Z,98611.66
2023-04-25T11:35:27.861Z,98606.84
2023-04-25T11:40:33.256Z,98615.75
2023-04-25T11:45:39.165Z,98597.78
2023-04-25T11:50:44.258Z,98598.03
2023-04-25T11:55:47.866Z,98578.66
2023-04-25T12:00:51.800Z,98572.94
2023-04-25T12:06:05.811Z,98570.50
2023-04-25T12:11:23.911Z,98565.50
2023-04-25T12:16:27.522Z,98555.88
2023-04-25T12:21:35.385Z,98543.84
2023-04-25T12:26:49.793Z,98538.97
2023-04-25T12:31:55.037Z,98526.34
2023-04-25T12:37:00.187Z,98518.63
2023-04-25T12:42:06.104Z,98514.63
2023-04-25T12:47:11.636Z,98507.63
2023-04-25T12:52:16.701Z,98500.41
2023-04-25T12:57:20.195Z,98481.53
2023-04-25T13:02:23.884Z,98482.97
2023-04-25T13:07:28.868Z,98476.38
2023-04-25T13:12:32.701Z,98470.75
2023-04-25T13:17:36.291Z,98471.13
2023-04-25T13:22:42.107Z,98461.63
2023-04-25T13:27:46.064Z,98461.56
2023-04-25T13:32:49.641Z,98464.06
2023-04-25T13:37:54.599Z,98456.69
2023-04-25T13:42:58.541Z,98463.03
2023-04-25T13:48:02.081Z,98448.53
2023-04-25T13:53:07.119Z,98442.28
2023-04-25T13:58:11.193Z,98435.19
2023-04-25T14:03:14.788Z,98430.22
2023-04-25T14:08:19.709Z,98427.78
2023-04-25T14:13:24.529Z,98418.81
2023-04-25T14:18:28.034Z,98421.84
2023-04-25T14:23:32.971Z,98412.69
2023-04-25T14:28:36.514Z,98405.66
2023-04-25T14:33:42.986Z,98403.59
2023-04-25T14:38:47.994Z,98404.91
2023-04-25T14:43:51.887Z,98395.78
2023-04-25T14:48:57.089Z,98387.09
2023-04-25T14:54:02.244Z,98378.56
2023-04-25T14:59:05.712Z,98375.44
2023-04-25T15:04:09.331Z,98363.75
2023-04-25T15:09:14.459Z,98354.03
2023-04-25T15:14:18.875Z,98342.13
2023-04-25T15:19:23.271Z,98341.31
2023-04-25T15:24:28.200Z,98328.28
2023-04-25T15:29:32.155Z,98321.78
2023-04-25T15:34:36.469Z,98311.31
2023-04-25T15:39:41.572Z,98307.72
2023-04-25T15:44:45.123Z,98302.16
2023-04-25T15:49:48.620Z,98295.75
2023-04-25T15:54:53.584Z,98285.19
2023-04-25T15:59:57.249Z,98282.00
2023-04-25T16:05:00.907Z,98279.00
2023-04-25T16:10:06.683Z,98277.13
2023-04-25T16:15:13.452Z,98271.81
2023-04-25T16:20:17.123Z,98259.59
2023-04-25T16:25:23.032Z,98259.94
2023-04-25T16:30:26.925Z,98259.38
2023-04-25T16:35:32.567Z,98263.56
2023-04-25T16:40:37.762Z,98260.09
2023-04-25T16:45:41.343Z,98253.09
2023-04-25T16:50:44.957Z,98257.16
2023-04-25T16:55:49.919Z,98257.63
2023-04-25T17:00:53.956Z,98254.03
2023-04-25T17:05:57.988Z,98257.91
2023-04-25T17:11:03.054Z,98248.41
2023-04-25T17:16:07.576Z,98252.59
2023-04-25T17:21:10.796Z,98246.25
2023-04-25T17:26:16.599Z,98247.50
2023-04-25T17:31:20.667Z,98232.72
2023-04-25T17:36:24.795Z,98238.88
2023-04-25T17:41:29.780Z,98232.94
2023-04-25T17:46:33.487Z,98229.00
2023-04-25T17:51:37.087Z,98222.66
2023-04-25T17:56:42.182Z,98216.88
2023-04-25T18:01:47.786Z,98218.00
2023-04-25T18:06:51.817Z,98211.88
2023-04-25T18:11:56.868Z,98205.94
2023-04-25T18:17:00.404Z,98205.28
2023-04-25T18:22:04.213Z,98204.31
2023-04-25T18:27:09.138Z,98224.00
2023-04-25T18:32:12.854Z,98226.13
2023-04-25T18:37:16.385Z,98211.97
2023-04-25T18:42:22.613Z,98214.00
2023-04-25T18:47:26.109Z,98196.91
2023-04-25T18:52:29.757Z,98206.56
2023-04-25T18:57:34.829Z,98207.34
2023-04-25T19:02:38.822Z,98199.91
2023-04-25T19:07:42.451Z,98199.34
2023-04-25T19:12:49.397Z,98190.53
2023-04-25T19:17:53.600Z,98182.66
2023-04-25T19:22:57.272Z,98180.84
2023-04-25T19:28:02.484Z,98180.69
2023-04-25T19:33:06.353Z,98164.97
2023-04-25T19:38:09.915Z,98166.38
2023-04-25T19:43:14.843Z,98168.28
2023-04-25T19:48:18.441Z,98171.56
2023-04-25T19:53:21.959Z,98166.66
2023-04-25T19:58:27.316Z,98162.13
2023-04-25T20:03:30.901Z,98142.13
2023-04-25T20:08:36.435Z,98153.50
2023-04-25T20:13:41.401Z,98152.00
2023-04-25T20:18:44.933Z,98151.22
2023-04-25T20:23:48.485Z,98139.59
2023-04-25T20:28:53.566Z,98128.69
2023-04-25T20:33:57.419Z,98124.06
2023-04-25T20:39:01.053Z,98118.81
2023-04-25T20:44:07.650Z,98121.59
2023-04-25T20:49:11.098Z,98108.41
2023-04-25T20:54:14.599Z,98088.47
2023-04-25T20:59:19.524Z,98098.63
2023-04-25T21:04:23.212Z,98086.59
2023-04-25T21:09:27.006Z,98080.34
2023-04-25T21:14:31.922Z,98070.25
2023-04-25T21:19:35.410Z,98062.94
2023-04-25T21:24:38.878Z,98058.78
2023-04-25T21:29:43.748Z,98048.06
2023-04-25T21:34:47.202Z,98042.56
2023-04-25T21:39:50.756Z,98041.38
2023-04-25T21:44:56.187Z,98034.34
2023-04-25T21:49:59.887Z,98030.88
2023-04-25T21:55:03.599Z,98025.19
2023-04-25T22:00:24.796Z,98021.75
2023-04-25T22:05:29.588Z,98016.44
2023-04-25T22:10:33.700Z,98008.78
2023-04-25T22:15:38.622Z,98003.63
2023-04-25T22:20:42.120Z,97999.66
2023-04-25T22:25:46.372Z,97996.44
2023-04-25T22:30:51.275Z,97983.75
2023-04-25T22:35:54.763Z,97982.97
2023-04-25T22:40:58.275Z,97975.88
2023-04-25T22:46:03.684Z,97968.16
2023-04-25T22:51:07.832Z,97967.94
2023-04-25T22:56:11.443Z,97962.53
2023-04-25T23:01:19.344Z,97962.50
2023-04-25T23:06:23.008Z,97952.63
2023-04-25T23:11:26.570Z,97939.56
2023-04-25T23:16:31.504Z,97939.84
2023-04-25T23:21:35.018Z,97934.44
2023-04-25T23:26:38.563Z,97934.44
2023-04-25T23:31:43.459Z,97925.28
2023-04-25T23:36:48.244Z,97925.78
2023-04-25T23:41:51.701Z,97926.47
2023-04-25T23:46:56.702Z,97907.38
2023-04-25T23:52:00.149Z,97915.06
2023-04-25T23:57:04.913Z,97910.38
